sensor_id;sensor_type;location;lat;lon;timestamp;temperature;humidity
11704;DHT22;5908;51.354;7.458;2024-01-11T00:02:24;-1.50;95.60
11704;DHT22;5908;51.354;7.458;2024-01-11T00:04:52;-1.50;95.60
11704;DHT22;5908;51.354;7.458;2024-01-11T00:07:19;-1.60;95.60
11704;DHT22;5908;51.354;7.458;2024-01-11T00:09:45;-1.60;95.80
11704;DHT22;5908;51.354;7.458;2024-01-11T00:12:12;-1.60;95.90
11704;DHT22;5908;51.354;7.458;2024-01-11T00:14:39;-1.50;95.70
11704;DHT22;5908;51.354;7.458;2024-01-11T00:17:05;-1.50;95.60
11704;DHT22;5908;51.354;7.458;2024-01-11T00:19:32;-1.50;95.60
11704;DHT22;5908;51.354;7.458;2024-01-11T00:22:00;-1.40;95.60
11704;DHT22;5908;51.354;7.458;2024-01-11T00:24:26;-1.50;95.80
11704;DHT22;5908;51.354;7.458;2024-01-11T00:26:53;-1.50;95.70
11704;DHT22;5908;51.354;7.458;2024-01-11T00:29:19;-1.50;95.90
11704;DHT22;5908;51.354;7.458;2024-01-11T00:31:46;-1.50;95.80
11704;DHT22;5908;51.354;7.458;2024-01-11T00:34:12;-1.50;95.80
11704;DHT22;5908;51.354;7.458;2024-01-11T00:36:39;-1.50;95.90
11704;DHT22;5908;51.354;7.458;2024-01-11T00:39:07;-1.50;95.50
11704;DHT22;5908;51.354;7.458;2024-01-11T00:41:34;-1.60;95.60
11704;DHT22;5908;51.354;7.458;2024-01-11T00:44:01;-1.60;95.80
11704;DHT22;5908;51.354;7.458;2024-01-11T00:46:27;-1.70;95.60
11704;DHT22;5908;51.354;7.458;2024-01-11T00:48:54;-1.70;95.70
11704;DHT22;5908;51.354;7.458;2024-01-11T00:51:20;-1.70;95.60
11704;DHT22;5908;51.354;7.458;2024-01-11T00:53:47;-1.60;95.60
11704;DHT22;5908;51.354;7.458;2024-01-11T00:56:18;-1.70;95.40
11704;DHT22;5908;51.354;7.458;2024-01-11T00:58:45;-1.70;95.50
11704;DHT22;5908;51.354;7.458;2024-01-11T01:01:11;-1.70;95.70
11704;DHT22;5908;51.354;7.458;2024-01-11T01:03:38;-1.70;95.90
11704;DHT22;5908;51.354;7.458;2024-01-11T01:06:04;-1.60;95.90
11704;DHT22;5908;51.354;7.458;2024-01-11T01:08:31;-1.60;95.70
11704;DHT22;5908;51.354;7.458;2024-01-11T01:10:58;-1.60;95.60
11704;DHT22;5908;51.354;7.458;2024-01-11T01:13:26;-1.60;95.50
11704;DHT22;5908;51.354;7.458;2024-01-11T01:15:52;-1.70;95.60
11704;DHT22;5908;51.354;7.458;2024-01-11T01:18:19;-1.80;95.40
11704;DHT22;5908;51.354;7.458;2024-01-11T01:20:46;-1.70;95.60
11704;DHT22;5908;51.354;7.458;2024-01-11T01:23:12;-1.70;95.60
11704;DHT22;5908;51.354;7.458;2024-01-11T01:25:39;-1.70;95.50
11704;DHT22;5908;51.354;7.458;2024-01-11T01:28:05;-1.80;95.30
11704;DHT22;5908;51.354;7.458;2024-01-11T01:30:33;-1.90;95.60
11704;DHT22;5908;51.354;7.458;2024-01-11T01:33:00;-2.00;95.70
11704;DHT22;5908;51.354;7.458;2024-01-11T01:35:27;-1.90;95.80
11704;DHT22;5908;51.354;7.458;2024-01-11T01:37:53;-1.80;95.80
11704;DHT22;5908;51.354;7.458;2024-01-11T01:40:20;-1.90;95.80
11704;DHT22;5908;51.354;7.458;2024-01-11T01:42:48;-1.90;95.60
11704;DHT22;5908;51.354;7.458;2024-01-11T01:45:15;-1.90;95.50
11704;DHT22;5908;51.354;7.458;2024-01-11T01:47:43;-1.90;95.60
11704;DHT22;5908;51.354;7.458;2024-01-11T01:50:10;-1.90;95.60
11704;DHT22;5908;51.354;7.458;2024-01-11T01:52:37;-1.90;95.50
11704;DHT22;5908;51.354;7.458;2024-01-11T01:55:06;-2.00;95.60
11704;DHT22;5908;51.354;7.458;2024-01-11T01:57:33;-2.00;95.60
11704;DHT22;5908;51.354;7.458;2024-01-11T02:00:01;-2.00;95.50
11704;DHT22;5908;51.354;7.458;2024-01-11T02:02:27;-2.00;95.50
11704;DHT22;5908;51.354;7.458;2024-01-11T02:04:55;-2.00;95.40
11704;DHT22;5908;51.354;7.458;2024-01-11T02:07:22;-2.00;95.50
11704;DHT22;5908;51.354;7.458;2024-01-11T02:09:49;-2.00;95.60
11704;DHT22;5908;51.354;7.458;2024-01-11T02:12:16;-2.10;95.60
11704;DHT22;5908;51.354;7.458;2024-01-11T02:14:43;-2.10;95.60
11704;DHT22;5908;51.354;7.458;2024-01-11T02:17:10;-2.20;95.60
11704;DHT22;5908;51.354;7.458;2024-01-11T02:19:37;-2.10;95.60
11704;DHT22;5908;51.354;7.458;2024-01-11T02:22:08;-2.10;95.30
11704;DHT22;5908;51.354;7.458;2024-01-11T02:24:38;-2.10;95.60
11704;DHT22;5908;51.354;7.458;2024-01-11T02:27:05;-2.10;95.40
11704;DHT22;5908;51.354;7.458;2024-01-11T02:29:31;-2.10;95.30
11704;DHT22;5908;51.354;7.458;2024-01-11T02:31:58;-2.10;95.60
11704;DHT22;5908;51.354;7.458;2024-01-11T02:34:27;-2.10;95.90
11704;DHT22;5908;51.354;7.458;2024-01-11T02:36:53;-2.00;95.40
11704;DHT22;5908;51.354;7.458;2024-01-11T02:39:20;-2.00;95.40
11704;DHT22;5908;51.354;7.458;2024-01-11T02:41:50;-2.10;95.50
11704;DHT22;5908;51.354;7.458;2024-01-11T02:44:17;-2.20;95.50
11704;DHT22;5908;51.354;7.458;2024-01-11T02:46:44;-2.10;95.40
11704;DHT22;5908;51.354;7.458;2024-01-11T02:49:10;-2.20;95.30
11704;DHT22;5908;51.354;7.458;2024-01-11T02:51:37;-2.10;95.30
11704;DHT22;5908;51.354;7.458;2024-01-11T02:54:03;-2.20;95.20
11704;DHT22;5908;51.354;7.458;2024-01-11T02:56:30;-2.20;95.10
11704;DHT22;5908;51.354;7.458;2024-01-11T02:58:58;-2.30;95.40
11704;DHT22;5908;51.354;7.458;2024-01-11T03:01:25;-2.30;95.50
11704;DHT22;5908;51.354;7.458;2024-01-11T03:03:52;-2.30;95.40
11704;DHT22;5908;51.354;7.458;2024-01-11T03:06:18;-2.30;95.30
11704;DHT22;5908;51.354;7.458;2024-01-11T03:08:47;-2.40;95.50
11704;DHT22;5908;51.354;7.458;2024-01-11T03:11:13;-2.40;95.70
11704;DHT22;5908;51.354;7.458;2024-01-11T03:13:40;-2.40;95.60
11704;DHT22;5908;51.354;7.458;2024-01-11T03:16:08;-2.30;95.50
11704;DHT22;5908;51.354;7.458;2024-01-11T03:18:34;-2.30;95.40
11704;DHT22;5908;51.354;7.458;2024-01-11T03:21:01;-2.30;95.20
11704;DHT22;5908;51.354;7.458;2024-01-11T03:23:27;-2.30;95.30
11704;DHT22;5908;51.354;7.458;2024-01-11T03:25:54;-2.40;95.30
11704;DHT22;5908;51.354;7.458;2024-01-11T03:28:21;-2.40;95.20
11704;DHT22;5908;51.354;7.458;2024-01-11T03:30:47;-2.50;95.30
11704;DHT22;5908;51.354;7.458;2024-01-11T03:33:15;-2.50;95.30
11704;DHT22;5908;51.354;7.458;2024-01-11T03:35:42;-2.50;95.30
11704;DHT22;5908;51.354;7.458;2024-01-11T03:38:09;-2.50;95.50
11704;DHT22;5908;51.354;7.458;2024-01-11T03:40:35;-2.60;95.50
11704;DHT22;5908;51.354;7.458;2024-01-11T03:43:02;-2.50;95.30
11704;DHT22;5908;51.354;7.458;2024-01-11T03:45:29;-2.60;95.30
11704;DHT22;5908;51.354;7.458;2024-01-11T03:47:56;-2.60;95.80
11704;DHT22;5908;51.354;7.458;2024-01-11T03:50:23;-2.60;95.50
11704;DHT22;5908;51.354;7.458;2024-01-11T03:52:50;-2.60;95.30
11704;DHT22;5908;51.354;7.458;2024-01-11T03:55:17;-2.60;95.30
11704;DHT22;5908;51.354;7.458;2024-01-11T03:57:43;-2.60;95.30
11704;DHT22;5908;51.354;7.458;2024-01-11T04:00:10;-2.70;95.40
11704;DHT22;5908;51.354;7.458;2024-01-11T04:02:37;-3.00;96.10
11704;DHT22;5908;51.354;7.458;2024-01-11T04:05:04;-3.10;96.60
11704;DHT22;5908;51.354;7.458;2024-01-11T04:07:32;-2.90;96.10
11704;DHT22;5908;51.354;7.458;2024-01-11T04:09:58;-2.80;96.00
11704;DHT22;5908;51.354;7.458;2024-01-11T04:12:25;-2.70;95.60
11704;DHT22;5908;51.354;7.458;2024-01-11T04:14:52;-2.70;95.50
11704;DHT22;5908;51.354;7.458;2024-01-11T04:17:18;-2.70;95.50
11704;DHT22;5908;51.354;7.458;2024-01-11T04:19:45;-2.60;95.40
11704;DHT22;5908;51.354;7.458;2024-01-11T04:22:11;-2.80;95.30
11704;DHT22;5908;51.354;7.458;2024-01-11T04:24:40;-2.60;95.30
11704;DHT22;5908;51.354;7.458;2024-01-11T04:27:07;-2.60;95.20
11704;DHT22;5908;51.354;7.458;2024-01-11T04:29:33;-2.70;95.30
11704;DHT22;5908;51.354;7.458;2024-01-11T04:32:00;-2.70;95.40
11704;DHT22;5908;51.354;7.458;2024-01-11T04:34:26;-2.80;95.50
11704;DHT22;5908;51.354;7.458;2024-01-11T04:36:53;-2.70;95.50
11704;DHT22;5908;51.354;7.458;2024-01-11T04:39:20;-2.70;95.40
11704;DHT22;5908;51.354;7.458;2024-01-11T04:41:47;-2.80;95.30
11704;DHT22;5908;51.354;7.458;2024-01-11T04:44:14;-2.80;95.50
11704;DHT22;5908;51.354;7.458;2024-01-11T04:46:41;-2.80;95.40
11704;DHT22;5908;51.354;7.458;2024-01-11T04:49:07;-2.90;95.50
11704;DHT22;5908;51.354;7.458;2024-01-11T04:51:34;-2.80;95.50
11704;DHT22;5908;51.354;7.458;2024-01-11T04:54:01;-2.80;95.30
11704;DHT22;5908;51.354;7.458;2024-01-11T04:56:27;-2.90;95.30
11704;DHT22;5908;51.354;7.458;2024-01-11T04:58:56;-2.90;95.20
11704;DHT22;5908;51.354;7.458;2024-01-11T05:01:24;-2.80;95.10
11704;DHT22;5908;51.354;7.458;2024-01-11T05:03:50;-2.90;95.20
11704;DHT22;5908;51.354;7.458;2024-01-11T05:06:17;-2.80;95.30
11704;DHT22;5908;51.354;7.458;2024-01-11T05:08:44;-2.80;95.20
11704;DHT22;5908;51.354;7.458;2024-01-11T05:11:15;-2.70;95.00
11704;DHT22;5908;51.354;7.458;2024-01-11T05:13:41;-2.70;94.80
11704;DHT22;5908;51.354;7.458;2024-01-11T05:16:16;-2.70;94.80
11704;DHT22;5908;51.354;7.458;2024-01-11T05:18:43;-2.70;94.80
11704;DHT22;5908;51.354;7.458;2024-01-11T05:21:10;-2.80;94.80
11704;DHT22;5908;51.354;7.458;2024-01-11T05:23:36;-2.90;95.10
11704;DHT22;5908;51.354;7.458;2024-01-11T05:26:03;-3.00;95.60
11704;DHT22;5908;51.354;7.458;2024-01-11T05:28:29;-3.20;95.80
11704;DHT22;5908;51.354;7.458;2024-01-11T05:30:56;-3.40;96.40
11704;DHT22;5908;51.354;7.458;2024-01-11T05:33:24;-3.30;96.30
11704;DHT22;5908;51.354;7.458;2024-01-11T05:35:50;-3.30;96.30
11704;DHT22;5908;51.354;7.458;2024-01-11T05:38:18;-3.30;96.40
11704;DHT22;5908;51.354;7.458;2024-01-11T05:40:45;-3.60;96.80
11704;DHT22;5908;51.354;7.458;2024-01-11T05:43:12;-4.00;97.40
11704;DHT22;5908;51.354;7.458;2024-01-11T05:45:38;-4.30;97.90
11704;DHT22;5908;51.354;7.458;2024-01-11T05:48:05;-4.40;98.90
11704;DHT22;5908;51.354;7.458;2024-01-11T05:50:33;-4.20;99.30
11704;DHT22;5908;51.354;7.458;2024-01-11T05:53:00;-3.90;99.90
11704;DHT22;5908;51.354;7.458;2024-01-11T05:55:26;-3.70;99.00
11704;DHT22;5908;51.354;7.458;2024-01-11T05:57:53;-3.90;98.80
11704;DHT22;5908;51.354;7.458;2024-01-11T06:00:19;-4.50;99.90
11704;DHT22;5908;51.354;7.458;2024-01-11T06:02:46;-4.60;99.90
11704;DHT22;5908;51.354;7.458;2024-01-11T06:05:13;-4.40;99.90
11704;DHT22;5908;51.354;7.458;2024-01-11T06:07:41;-4.00;99.90
11704;DHT22;5908;51.354;7.458;2024-01-11T06:10:08;-4.00;99.90
11704;DHT22;5908;51.354;7.458;2024-01-11T06:12:35;-3.80;99.60
11704;DHT22;5908;51.354;7.458;2024-01-11T06:15:02;-3.50;98.80
11704;DHT22;5908;51.354;7.458;2024-01-11T06:17:29;-3.20;98.10
11704;DHT22;5908;51.354;7.458;2024-01-11T06:19:55;-3.00;97.50
11704;DHT22;5908;51.354;7.458;2024-01-11T06:22:22;-2.90;97.10
11704;DHT22;5908;51.354;7.458;2024-01-11T06:24:50;-2.70;96.60
11704;DHT22;5908;51.354;7.458;2024-01-11T06:27:16;-2.60;96.40
11704;DHT22;5908;51.354;7.458;2024-01-11T06:29:43;-2.60;96.20
11704;DHT22;5908;51.354;7.458;2024-01-11T06:32:09;-2.50;96.10
11704;DHT22;5908;51.354;7.458;2024-01-11T06:34:36;-2.70;96.20
11704;DHT22;5908;51.354;7.458;2024-01-11T06:37:03;-2.60;96.10
11704;DHT22;5908;51.354;7.458;2024-01-11T06:39:29;-2.60;95.70
11704;DHT22;5908;51.354;7.458;2024-01-11T06:41:57;-2.50;95.70
11704;DHT22;5908;51.354;7.458;2024-01-11T06:44:24;-2.60;95.60
11704;DHT22;5908;51.354;7.458;2024-01-11T06:46:51;-2.60;95.50
11704;DHT22;5908;51.354;7.458;2024-01-11T06:49:17;-2.60;95.50
11704;DHT22;5908;51.354;7.458;2024-01-11T06:51:44;-2.50;95.50
11704;DHT22;5908;51.354;7.458;2024-01-11T06:54:10;-2.60;95.40
11704;DHT22;5908;51.354;7.458;2024-01-11T06:56:37;-2.70;95.70
11704;DHT22;5908;51.354;7.458;2024-01-11T06:59:05;-2.70;95.80
11704;DHT22;5908;51.354;7.458;2024-01-11T07:01:32;-2.70;95.70
11704;DHT22;5908;51.354;7.458;2024-01-11T07:03:59;-2.70;95.60
11704;DHT22;5908;51.354;7.458;2024-01-11T07:06:25;-2.70;95.70
11704;DHT22;5908;51.354;7.458;2024-01-11T07:08:52;-2.60;95.70
11704;DHT22;5908;51.354;7.458;2024-01-11T07:11:19;-2.60;95.50
11704;DHT22;5908;51.354;7.458;2024-01-11T07:13:46;-2.50;95.80
11704;DHT22;5908;51.354;7.458;2024-01-11T07:16:13;-2.60;95.30
11704;DHT22;5908;51.354;7.458;2024-01-11T07:18:40;-2.50;96.00
11704;DHT22;5908;51.354;7.458;2024-01-11T07:21:07;-2.50;96.30
11704;DHT22;5908;51.354;7.458;2024-01-11T07:23:33;-2.50;96.70
11704;DHT22;5908;51.354;7.458;2024-01-11T07:26:00;-2.40;96.40
11704;DHT22;5908;51.354;7.458;2024-01-11T07:28:26;-2.40;96.60
11704;DHT22;5908;51.354;7.458;2024-01-11T07:30:53;-2.30;96.60
11704;DHT22;5908;51.354;7.458;2024-01-11T07:33:21;-2.30;96.20
11704;DHT22;5908;51.354;7.458;2024-01-11T07:35:47;-2.20;96.50
11704;DHT22;5908;51.354;7.458;2024-01-11T07:38:14;-2.20;96.00
11704;DHT22;5908;51.354;7.458;2024-01-11T07:40:41;-2.30;95.50
11704;DHT22;5908;51.354;7.458;2024-01-11T07:43:08;-2.40;96.20
11704;DHT22;5908;51.354;7.458;2024-01-11T07:45:34;-2.30;95.70
11704;DHT22;5908;51.354;7.458;2024-01-11T07:48:01;-2.20;95.30
11704;DHT22;5908;51.354;7.458;2024-01-11T07:50:30;-2.20;95.10
11704;DHT22;5908;51.354;7.458;2024-01-11T07:52:57;-2.20;95.00
11704;DHT22;5908;51.354;7.458;2024-01-11T07:55:23;-2.20;94.80
11704;DHT22;5908;51.354;7.458;2024-01-11T07:57:51;-2.10;95.10
11704;DHT22;5908;51.354;7.458;2024-01-11T08:00:18;-2.00;94.90
11704;DHT22;5908;51.354;7.458;2024-01-11T08:02:45;-1.90;94.80
11704;DHT22;5908;51.354;7.458;2024-01-11T08:05:11;-2.00;94.60
11704;DHT22;5908;51.354;7.458;2024-01-11T08:07:39;-1.90;94.60
11704;DHT22;5908;51.354;7.458;2024-01-11T08:10:07;-1.80;94.50
11704;DHT22;5908;51.354;7.458;2024-01-11T08:12:35;-1.80;94.30
11704;DHT22;5908;51.354;7.458;2024-01-11T08:15:02;-1.70;94.20
11704;DHT22;5908;51.354;7.458;2024-01-11T08:17:28;-1.70;94.10
11704;DHT22;5908;51.354;7.458;2024-01-11T08:19:55;-1.60;94.00
11704;DHT22;5908;51.354;7.458;2024-01-11T08:22:22;-1.60;94.00
11704;DHT22;5908;51.354;7.458;2024-01-11T08:24:49;-1.60;93.90
11704;DHT22;5908;51.354;7.458;2024-01-11T08:27:16;-1.70;94.10
11704;DHT22;5908;51.354;7.458;2024-01-11T08:29:43;-1.80;94.30
11704;DHT22;5908;51.354;7.458;2024-01-11T08:32:12;-1.80;94.30
11704;DHT22;5908;51.354;7.458;2024-01-11T08:34:38;-1.70;94.10
11704;DHT22;5908;51.354;7.458;2024-01-11T08:37:05;-2.10;94.40
11704;DHT22;5908;51.354;7.458;2024-01-11T08:39:31;-2.00;94.70
11704;DHT22;5908;51.354;7.458;2024-01-11T08:42:00;-1.70;94.60
11704;DHT22;5908;51.354;7.458;2024-01-11T08:44:27;-1.60;94.40
11704;DHT22;5908;51.354;7.458;2024-01-11T08:46:55;-1.50;94.20
11704;DHT22;5908;51.354;7.458;2024-01-11T08:49:22;-1.40;94.10
11704;DHT22;5908;51.354;7.458;2024-01-11T08:51:49;-1.40;94.00
11704;DHT22;5908;51.354;7.458;2024-01-11T08:54:16;-1.30;93.90
11704;DHT22;5908;51.354;7.458;2024-01-11T08:56:46;-1.30;94.00
11704;DHT22;5908;51.354;7.458;2024-01-11T08:59:14;-1.30;93.80
11704;DHT22;5908;51.354;7.458;2024-01-11T09:01:40;-1.80;93.80
11704;DHT22;5908;51.354;7.458;2024-01-11T09:04:07;-1.90;94.80
11704;DHT22;5908;51.354;7.458;2024-01-11T09:06:34;-2.00;94.70
11704;DHT22;5908;51.354;7.458;2024-01-11T09:09:01;-2.20;95.40
11704;DHT22;5908;51.354;7.458;2024-01-11T09:11:27;-1.90;95.40
11704;DHT22;5908;51.354;7.458;2024-01-11T09:13:54;-1.60;94.90
11704;DHT22;5908;51.354;7.458;2024-01-11T09:16:23;-1.50;94.60
11704;DHT22;5908;51.354;7.458;2024-01-11T09:18:50;-1.40;94.60
11704;DHT22;5908;51.354;7.458;2024-01-11T09:21:16;-1.20;94.50
11704;DHT22;5908;51.354;7.458;2024-01-11T09:23:43;-1.20;94.00
11704;DHT22;5908;51.354;7.458;2024-01-11T09:26:09;-1.30;94.30
11704;DHT22;5908;51.354;7.458;2024-01-11T09:28:36;-1.30;94.40
11704;DHT22;5908;51.354;7.458;2024-01-11T09:31:03;-1.30;94.30
11704;DHT22;5908;51.354;7.458;2024-01-11T09:33:31;-1.20;94.30
11704;DHT22;5908;51.354;7.458;2024-01-11T09:35:57;-1.20;94.30
11704;DHT22;5908;51.354;7.458;2024-01-11T09:38:24;-1.10;94.80
11704;DHT22;5908;51.354;7.458;2024-01-11T09:40:53;-0.90;94.30
11704;DHT22;5908;51.354;7.458;2024-01-11T09:43:25;-0.70;94.20
11704;DHT22;5908;51.354;7.458;2024-01-11T09:45:53;-0.60;94.10
11704;DHT22;5908;51.354;7.458;2024-01-11T09:48:20;-0.50;94.00
11704;DHT22;5908;51.354;7.458;2024-01-11T09:50:48;-0.40;94.00
11704;DHT22;5908;51.354;7.458;2024-01-11T09:53:16;-0.30;93.80
11704;DHT22;5908;51.354;7.458;2024-01-11T09:55:43;-0.30;93.70
11704;DHT22;5908;51.354;7.458;2024-01-11T09:58:10;-0.30;93.80
11704;DHT22;5908;51.354;7.458;2024-01-11T10:00:36;-0.30;93.80
11704;DHT22;5908;51.354;7.458;2024-01-11T10:03:04;-0.20;94.10
11704;DHT22;5908;51.354;7.458;2024-01-11T10:05:30;-0.20;94.00
11704;DHT22;5908;51.354;7.458;2024-01-11T10:07:59;-0.10;94.10
11704;DHT22;5908;51.354;7.458;2024-01-11T10:10:25;-0.10;94.10
11704;DHT22;5908;51.354;7.458;2024-01-11T10:12:52;-0.20;94.00
11704;DHT22;5908;51.354;7.458;2024-01-11T10:15:23;-0.30;94.50
11704;DHT22;5908;51.354;7.458;2024-01-11T10:17:51;-0.20;94.70
11704;DHT22;5908;51.354;7.458;2024-01-11T10:20:18;0.00;94.70
11704;DHT22;5908;51.354;7.458;2024-01-11T10:22:49;0.10;94.70
11704;DHT22;5908;51.354;7.458;2024-01-11T10:25:19;0.10;94.60
11704;DHT22;5908;51.354;7.458;2024-01-11T10:27:46;0.20;94.60
11704;DHT22;5908;51.354;7.458;2024-01-11T10:30:13;0.30;94.50
11704;DHT22;5908;51.354;7.458;2024-01-11T10:32:41;0.30;94.60
11704;DHT22;5908;51.354;7.458;2024-01-11T10:35:08;0.40;94.50
11704;DHT22;5908;51.354;7.458;2024-01-11T10:37:35;0.50;94.20
11704;DHT22;5908;51.354;7.458;2024-01-11T10:40:04;0.60;94.60
11704;DHT22;5908;51.354;7.458;2024-01-11T10:42:37;0.70;94.60
11704;DHT22;5908;51.354;7.458;2024-01-11T10:45:06;0.80;94.60
11704;DHT22;5908;51.354;7.458;2024-01-11T10:47:36;0.90;94.60
11704;DHT22;5908;51.354;7.458;2024-01-11T10:50:04;0.90;94.60
11704;DHT22;5908;51.354;7.458;2024-01-11T10:52:34;1.00;94.70
11704;DHT22;5908;51.354;7.458;2024-01-11T10:55:02;1.10;94.80
11704;DHT22;5908;51.354;7.458;2024-01-11T10:57:29;1.10;94.60
11704;DHT22;5908;51.354;7.458;2024-01-11T10:59:58;1.20;94.60
11704;DHT22;5908;51.354;7.458;2024-01-11T11:02:28;1.30;94.40
11704;DHT22;5908;51.354;7.458;2024-01-11T11:04:55;1.40;94.40
11704;DHT22;5908;51.354;7.458;2024-01-11T11:07:22;1.40;94.50
11704;DHT22;5908;51.354;7.458;2024-01-11T11:09:49;1.50;94.60
11704;DHT22;5908;51.354;7.458;2024-01-11T11:12:16;1.60;94.30
11704;DHT22;5908;51.354;7.458;2024-01-11T11:14:44;1.50;94.30
11704;DHT22;5908;51.354;7.458;2024-01-11T11:17:14;1.60;94.10
11704;DHT22;5908;51.354;7.458;2024-01-11T11:19:41;1.60;93.40
11704;DHT22;5908;51.354;7.458;2024-01-11T11:22:08;1.30;92.80
11704;DHT22;5908;51.354;7.458;2024-01-11T11:24:34;1.30;93.70
11704;DHT22;5908;51.354;7.458;2024-01-11T11:27:01;1.40;93.80
11704;DHT22;5908;51.354;7.458;2024-01-11T11:29:28;1.60;93.90
11704;DHT22;5908;51.354;7.458;2024-01-11T11:31:55;1.70;94.00
11704;DHT22;5908;51.354;7.458;2024-01-11T11:37:05;1.90;93.80
11704;DHT22;5908;51.354;7.458;2024-01-11T11:39:32;2.00;93.70
11704;DHT22;5908;51.354;7.458;2024-01-11T11:41:59;2.00;93.60
11704;DHT22;5908;51.354;7.458;2024-01-11T11:44:26;2.10;93.60
11704;DHT22;5908;51.354;7.458;2024-01-11T11:46:53;2.20;93.40
11704;DHT22;5908;51.354;7.458;2024-01-11T11:49:19;2.20;93.00
11704;DHT22;5908;51.354;7.458;2024-01-11T11:51:46;2.30;93.00
11704;DHT22;5908;51.354;7.458;2024-01-11T11:54:15;2.40;93.10
11704;DHT22;5908;51.354;7.458;2024-01-11T11:56:42;2.40;93.30
11704;DHT22;5908;51.354;7.458;2024-01-11T11:59:09;2.40;93.30
11704;DHT22;5908;51.354;7.458;2024-01-11T12:01:37;2.50;93.30
11704;DHT22;5908;51.354;7.458;2024-01-11T12:04:03;2.50;92.90
11704;DHT22;5908;51.354;7.458;2024-01-11T12:06:30;2.40;92.80
11704;DHT22;5908;51.354;7.458;2024-01-11T12:08:56;2.50;93.00
11704;DHT22;5908;51.354;7.458;2024-01-11T12:11:24;2.50;92.90
11704;DHT22;5908;51.354;7.458;2024-01-11T12:13:51;2.60;92.70
11704;DHT22;5908;51.354;7.458;2024-01-11T12:16:19;2.60;92.90
11704;DHT22;5908;51.354;7.458;2024-01-11T12:18:46;2.60;92.90
11704;DHT22;5908;51.354;7.458;2024-01-11T12:21:12;2.70;92.90
11704;DHT22;5908;51.354;7.458;2024-01-11T12:23:39;2.50;92.10
11704;DHT22;5908;51.354;7.458;2024-01-11T12:26:06;2.10;90.80
11704;DHT22;5908;51.354;7.458;2024-01-11T12:28:38;1.40;90.60
11704;DHT22;5908;51.354;7.458;2024-01-11T12:31:04;1.00;91.00
11704;DHT22;5908;51.354;7.458;2024-01-11T12:33:31;0.90;91.30
11704;DHT22;5908;51.354;7.458;2024-01-11T12:36:00;0.90;91.40
11704;DHT22;5908;51.354;7.458;2024-01-11T12:38:26;1.00;91.50
11704;DHT22;5908;51.354;7.458;2024-01-11T12:40:53;1.20;91.50
11704;DHT22;5908;51.354;7.458;2024-01-11T12:43:19;1.30;91.30
11704;DHT22;5908;51.354;7.458;2024-01-11T12:45:47;1.50;91.30
11704;DHT22;5908;51.354;7.458;2024-01-11T12:48:14;1.80;91.70
11704;DHT22;5908;51.354;7.458;2024-01-11T12:50:42;2.00;91.10
11704;DHT22;5908;51.354;7.458;2024-01-11T12:53:10;2.00;91.30
11704;DHT22;5908;51.354;7.458;2024-01-11T12:55:37;2.00;90.80
11704;DHT22;5908;51.354;7.458;2024-01-11T12:58:04;1.70;90.30
11704;DHT22;5908;51.354;7.458;2024-01-11T13:00:31;1.80;90.50
11704;DHT22;5908;51.354;7.458;2024-01-11T13:02:59;1.90;90.20
11704;DHT22;5908;51.354;7.458;2024-01-11T13:05:26;2.10;90.30
11704;DHT22;5908;51.354;7.458;2024-01-11T13:07:52;2.30;90.70
11704;DHT22;5908;51.354;7.458;2024-01-11T13:10:19;2.40;90.50
11704;DHT22;5908;51.354;7.458;2024-01-11T13:12:46;2.50;90.30
11704;DHT22;5908;51.354;7.458;2024-01-11T13:15:13;2.70;90.20
11704;DHT22;5908;51.354;7.458;2024-01-11T13:17:39;2.80;89.60
11704;DHT22;5908;51.354;7.458;2024-01-11T13:20:08;2.50;90.10
11704;DHT22;5908;51.354;7.458;2024-01-11T13:22:34;2.30;90.60
11704;DHT22;5908;51.354;7.458;2024-01-11T13:25:01;2.20;90.70
11704;DHT22;5908;51.354;7.458;2024-01-11T13:27:27;2.10;90.50
11704;DHT22;5908;51.354;7.458;2024-01-11T13:29:54;2.10;90.70
11704;DHT22;5908;51.354;7.458;2024-01-11T13:32:21;2.00;88.70
11704;DHT22;5908;51.354;7.458;2024-01-11T13:34:47;1.90;86.70
11704;DHT22;5908;51.354;7.458;2024-01-11T13:37:15;1.90;87.60
11704;DHT22;5908;51.354;7.458;2024-01-11T13:39:42;2.00;88.20
11704;DHT22;5908;51.354;7.458;2024-01-11T13:42:08;1.80;87.10
11704;DHT22;5908;51.354;7.458;2024-01-11T13:44:36;1.80;86.50
11704;DHT22;5908;51.354;7.458;2024-01-11T13:47:03;1.90;85.60
11704;DHT22;5908;51.354;7.458;2024-01-11T13:49:29;2.00;86.30
11704;DHT22;5908;51.354;7.458;2024-01-11T13:51:56;2.10;87.10
11704;DHT22;5908;51.354;7.458;2024-01-11T13:54:24;1.90;87.10
11704;DHT22;5908;51.354;7.458;2024-01-11T13:56:51;1.80;88.10
11704;DHT22;5908;51.354;7.458;2024-01-11T13:59:18;1.70;85.50
11704;DHT22;5908;51.354;7.458;2024-01-11T14:01:45;1.90;85.40
11704;DHT22;5908;51.354;7.458;2024-01-11T14:04:12;1.80;84.30
11704;DHT22;5908;51.354;7.458;2024-01-11T14:06:38;1.60;83.10
11704;DHT22;5908;51.354;7.458;2024-01-11T14:09:05;1.60;83.40
11704;DHT22;5908;51.354;7.458;2024-01-11T14:11:36;1.70;85.60
11704;DHT22;5908;51.354;7.458;2024-01-11T14:14:02;2.00;83.70
11704;DHT22;5908;51.354;7.458;2024-01-11T14:16:29;1.80;83.50
11704;DHT22;5908;51.354;7.458;2024-01-11T14:18:55;2.00;86.50
11704;DHT22;5908;51.354;7.458;2024-01-11T14:22:40;2.30;85.10
11704;DHT22;5908;51.354;7.458;2024-01-11T14:25:07;2.70;87.60
11704;DHT22;5908;51.354;7.458;2024-01-11T14:27:36;2.90;86.10
11704;DHT22;5908;51.354;7.458;2024-01-11T14:30:04;3.00;85.00
11704;DHT22;5908;51.354;7.458;2024-01-11T14:32:31;3.20;84.30
11704;DHT22;5908;51.354;7.458;2024-01-11T14:34:58;3.20;84.00
11704;DHT22;5908;51.354;7.458;2024-01-11T14:37:29;3.30;84.00
11704;DHT22;5908;51.354;7.458;2024-01-11T14:39:57;3.30;83.50
11704;DHT22;5908;51.354;7.458;2024-01-11T14:42:25;3.50;82.60
11704;DHT22;5908;51.354;7.458;2024-01-11T14:44:51;3.60;82.80
11704;DHT22;5908;51.354;7.458;2024-01-11T14:47:18;3.30;81.90
11704;DHT22;5908;51.354;7.458;2024-01-11T14:49:45;3.10;82.80
11704;DHT22;5908;51.354;7.458;2024-01-11T14:52:12;3.20;82.90
11704;DHT22;5908;51.354;7.458;2024-01-11T14:54:39;3.40;83.00
11704;DHT22;5908;51.354;7.458;2024-01-11T14:57:08;3.50;83.50
11704;DHT22;5908;51.354;7.458;2024-01-11T14:59:34;3.70;84.40
11704;DHT22;5908;51.354;7.458;2024-01-11T15:02:01;3.50;81.20
11704;DHT22;5908;51.354;7.458;2024-01-11T15:04:28;3.30;80.30
11704;DHT22;5908;51.354;7.458;2024-01-11T15:06:56;3.10;80.50
11704;DHT22;5908;51.354;7.458;2024-01-11T15:09:22;3.00;80.50
11704;DHT22;5908;51.354;7.458;2024-01-11T15:11:51;2.90;81.00
11704;DHT22;5908;51.354;7.458;2024-01-11T15:14:19;2.90;81.10
11704;DHT22;5908;51.354;7.458;2024-01-11T15:16:46;3.00;81.80
11704;DHT22;5908;51.354;7.458;2024-01-11T15:19:13;3.00;82.70
11704;DHT22;5908;51.354;7.458;2024-01-11T15:21:40;3.00;81.70
11704;DHT22;5908;51.354;7.458;2024-01-11T15:24:07;3.10;82.10
11704;DHT22;5908;51.354;7.458;2024-01-11T15:26:34;2.90;81.80
11704;DHT22;5908;51.354;7.458;2024-01-11T15:29:01;2.60;82.70
11704;DHT22;5908;51.354;7.458;2024-01-11T15:31:30;2.40;83.90
11704;DHT22;5908;51.354;7.458;2024-01-11T15:33:56;2.20;85.10
11704;DHT22;5908;51.354;7.458;2024-01-11T15:36:23;2.00;86.40
11704;DHT22;5908;51.354;7.458;2024-01-11T15:38:52;2.10;86.60
11704;DHT22;5908;51.354;7.458;2024-01-11T15:41:19;2.00;87.10
11704;DHT22;5908;51.354;7.458;2024-01-11T15:43:46;1.80;88.10
11704;DHT22;5908;51.354;7.458;2024-01-11T15:46:14;1.50;89.00
11704;DHT22;5908;51.354;7.458;2024-01-11T15:48:43;1.60;89.90
11704;DHT22;5908;51.354;7.458;2024-01-11T15:51:10;1.60;90.80
11704;DHT22;5908;51.354;7.458;2024-01-11T15:53:37;1.30;91.80
11704;DHT22;5908;51.354;7.458;2024-01-11T15:56:04;1.40;92.50